Time;durP1;ratioP1;P1;durP2;ratioP2;P2;SDS_P1;SDS_P2;PMS_P1;PMS_P2;Temp;Humidity;BMP_temperature;BMP_pressure;BME280_temperature;BME280_humidity;BME280_pressure;Samples;Min_cycle;Max_cycle;Signal;HPM_P1;HPM_P2
2023/02/01 08:03:01;;;;;;;;;;;;;;;3.93;85.87;98315.31;5457131;23;19958;-62
2023/02/01 08:05:26;;;;;;;;;;;;;;;3.91;85.97;98316.25;4954298;29;19961;-60
2023/02/01 08:07:51;;;;;;;;;;;;;;;3.94;85.63;98317.00;4953158;29;19914;-62
2023/02/01 08:10:17;;;;;;;;;;;;;;;3.90;86.37;98315.44;4953521;29;19965;-63
2023/02/01 08:12:42;;;;;;;;;;;;;;;3.90;85.89;98315.44;4944866;29;19923;-61
2023/02/01 08:15:07;;;;;;;;;;;;;;;3.90;85.54;98309.41;4930026;29;19921;-62
2023/02/01 08:17:33;;;;;;;;;;;;;;;3.96;85.81;98309.16;4932635;29;19919;-62
2023/02/01 08:19:58;;;;;;;;;;;;;;;3.98;85.20;98323.75;4933246;29;20450;-63
2023/02/01 08:22:23;;;;;;;;;;;;;;;4.01;84.30;98321.03;4935101;29;20398;-62
2023/02/01 08:24:49;;;;;;;;;;;;;;;4.05;84.40;98309.59;4935344;29;20310;-62
2023/02/01 08:27:14;;;;;;;;;;;;;;;4.11;84.19;98311.13;4935086;29;20374;-62
2023/02/01 08:29:39;;;;;;;;;;;;;;;4.16;83.98;98316.94;4935360;29;19914;-64
2023/02/01 08:32:04;;;;;;;;;;;;;;;4.22;83.63;98315.88;4934069;29;20005;-64
2023/02/01 08:34:29;;;;;;;;;;;;;;;4.24;83.98;98309.72;4935243;29;19946;-64
2023/02/01 08:36:58;;;;;;;;;;;;;;;4.31;82.93;98320.69;4935077;29;20290;-63
2023/02/01 08:39:23;;;;;;;;;;;;;;;4.37;82.65;98327.38;4935315;29;20009;-64
2023/02/01 08:42:50;;;;;;;;;;;;;;;4.29;82.69;98338.06;4934973;29;20014;-64
2023/02/01 08:44:34;;;;;;;;;;;;;;;4.38;83.13;98355.88;4935040;29;20374;-64
2023/02/01 08:46:59;;;;;;;;;;;;;;;4.50;82.65;98362.31;4933681;29;19943;-63
2023/02/01 08:49:24;;;;;;;;;;;;;;;4.50;82.95;98342.38;4933829;29;20346;-65
2023/02/01 08:51:49;;;;;;;;;;;;;;;4.53;81.73;98342.25;4935012;29;19931;-64
2023/02/01 08:54:15;;;;;;;;;;;;;;;4.52;82.05;98348.38;4934754;29;19918;-65
2023/02/01 08:56:40;;;;;;;;;;;;;;;4.51;82.69;98331.09;4934948;29;19989;-64
2023/02/01 08:59:05;;;;;;;;;;;;;;;4.55;82.29;98333.56;4934869;29;19958;-65
2023/02/01 09:01:31;;;;;;;;;;;;;;;4.56;82.20;98327.44;4934955;29;20021;-64
2023/02/01 09:03:56;;;;;;;;;;;;;;;4.50;82.34;98331.97;4934805;29;20005;-64
2023/02/01 09:06:21;;;;;;;;;;;;;;;4.56;81.73;98346.47;4934945;29;20006;-63
2023/02/01 09:08:46;;;;;;;;;;;;;;;4.52;82.89;98350.13;4934732;29;20005;-64
2023/02/01 09:11:12;;;;;;;;;;;;;;;4.47;83.96;98350.31;4934857;29;20009;-65
2023/02/01 09:13:38;;;;;;;;;;;;;;;4.40;85.17;98345.41;4935025;29;19970;-65
2023/02/01 09:16:03;;;;;;;;;;;;;;;4.40;85.22;98356.66;4951717;29;19915;-65
2023/02/01 09:18:28;;;;;;;;;;;;;;;4.30;85.59;98368.31;4952544;29;19922;-63
2023/02/01 09:20:54;;;;;;;;;;;;;;;4.21;85.97;98377.34;4953875;28;19918;-63
2023/02/01 09:23:20;;;;;;;;;;;;;;;4.18;85.14;98381.81;4953891;28;19954;-62
2023/02/01 09:25:45;;;;;;;;;;;;;;;3.97;83.46;98394.72;4953896;28;19918;-61
2023/02/01 09:28:10;;;;;;;;;;;;;;;3.81;84.86;98401.41;4922363;29;19970;-63
2023/02/01 09:30:36;;;;;;;;;;;;;;;3.71;85.07;98407.84;4933588;29;20298;-62
2023/02/01 09:33:01;;;;;;;;;;;;;;;3.54;86.25;98406.75;4933340;29;20307;-62
2023/02/01 09:35:26;;;;;;;;;;;;;;;3.45;86.31;98412.25;4934588;29;19922;-62
2023/02/01 09:37:52;;;;;;;;;;;;;;;3.42;86.26;98427.94;4934464;29;19919;-63
2023/02/01 09:40:17;;;;;;;;;;;;;;;3.25;87.56;98427.69;4934817;29;19922;-63
2023/02/01 09:42:49;;;;;;;;;;;;;;;3.26;85.25;98412.06;4934635;29;19915;-63
2023/02/01 09:45:17;;;;;;;;;;;;;;;3.36;83.16;98406.56;4933348;29;19943;-62
2023/02/01 09:47:45;;;;;;;;;;;;;;;3.41;83.18;98404.66;4934318;29;19941;-63
2023/02/01 09:50:19;;;;;;;;;;;;;;;3.45;83.92;98416.59;4917469;29;20375;-64
2023/02/01 09:52:51;;;;;;;;;;;;;;;3.59;82.99;98426.47;4934681;29;19963;-64
2023/02/01 09:55:18;;;;;;;;;;;;;;;3.68;83.85;98423.53;4933408;29;19973;-61
2023/02/01 09:57:46;;;;;;;;;;;;;;;3.78;84.57;98432.66;4917354;29;20010;-63
2023/02/01 10:00:16;;;;;;;;;;;;;;;3.99;85.06;98434.47;4917332;29;19921;-63
2023/02/01 10:02:41;;;;;;;;;;;;;;;4.33;84.98;98433.13;4933041;29;19926;-63
2023/02/01 10:05:10;;;;;;;;;;;;;;;4.56;84.47;98439.16;4933316;29;19915;-62
2023/02/01 10:07:38;;;;;;;;;;;;;;;4.71;84.34;98429.00;4935291;29;19925;-64
2023/02/01 10:10:04;;;;;;;;;;;;;;;4.75;82.45;98445.31;4937827;29;19914;-62
2023/02/01 10:12:49;;;;;;;;;;;;;;;4.78;82.92;98447.75;4937693;29;20338;-62
2023/02/01 10:15:17;;;;;;;;;;;;;;;4.79;82.01;98440.81;4937681;29;20002;-62
2023/02/01 10:17:51;;;;;;;;;;;;;;;4.84;82.31;98444.91;4937233;29;19914;-62
2023/02/01 10:20:19;;;;;;;;;;;;;;;4.86;81.22;98447.47;4937569;29;19915;-61
2023/02/01 10:22:46;;;;;;;;;;;;;;;4.78;81.79;98445.16;4936389;29;19941;-64
2023/02/01 10:25:34;;;;;;;;;;;;;;;4.77;81.95;98448.66;4936413;29;19915;-63
2023/02/01 10:28:00;;;;;;;;;;;;;;;4.74;81.24;98438.41;4931784;29;20282;-62
2023/02/01 10:30:27;;;;;;;;;;;;;;;4.74;81.49;98438.41;4937505;29;19918;-63
2023/02/01 10:32:55;;;;;;;;;;;;;;;4.68;81.22;98436.91;4936166;29;19946;-63
2023/02/01 10:35:31;;;;;;;;;;;;;;;4.73;81.58;98447.09;4936100;29;19919;-62
2023/02/01 10:37:58;;;;;;;;;;;;;;;4.80;81.48;98445.09;4937035;29;19915;-62
2023/02/01 10:40:24;;;;;;;;;;;;;;;4.85;79.75;98431.03;4936254;29;19918;-61
2023/02/01 10:42:50;;;;;;;;;;;;;;;4.99;79.19;98418.28;4935938;29;19914;-63
2023/02/01 10:45:21;;;;;;;;;;;;;;;5.11;79.00;98421.25;4935947;29;20309;-63
2023/02/01 10:47:50;;;;;;;;;;;;;;;5.28;78.16;98423.13;4935752;29;19914;-64
2023/02/01 10:50:25;;;;;;;;;;;;;;;5.20;78.79;98416.50;4937147;29;19919;-64
2023/02/01 10:52:50;;;;;;;;;;;;;;;5.16;78.73;98432.28;4935731;29;19962;-61
2023/02/01 10:55:28;;;;;;;;;;;;;;;5.20;77.52;98426.06;4936937;29;19914;-61
2023/02/01 10:57:57;;;;;;;;;;;;;;;5.26;77.53;98407.56;4936634;29;19966;-64
2023/02/01 11:00:23;;;;;;;;;;;;;;;5.33;76.93;98401.19;4936802;29;19915;-64
2023/02/01 11:02:50;;;;;;;;;;;;;;;5.27;76.16;98409.28;4919549;29;19919;-64
2023/02/01 11:05:16;;;;;;;;;;;;;;;5.30;75.81;98401.34;4936782;29;19970;-63
2023/02/01 11:07:46;;;;;;;;;;;;;;;5.28;76.52;98412.72;4935546;29;19946;-65
2023/02/01 11:10:31;;;;;;;;;;;;;;;5.46;74.46;98397.13;4935397;29;20362;-64
2023/02/01 11:12:57;;;;;;;;;;;;;;;5.67;73.25;98399.69;4936434;29;19915;-63
2023/02/01 11:15:23;;;;;;;;;;;;;;;5.70;71.83;98394.34;4935224;29;19915;-64
2023/02/01 11:17:51;;;;;;;;;;;;;;;5.70;72.37;98391.75;4929944;29;19922;-62
2023/02/01 11:20:17;;;;;;;;;;;;;;;5.75;73.55;98386.31;4916243;29;20371;-62
2023/02/01 11:22:47;;;;;;;;;;;;;;;5.66;71.65;98388.44;4915542;29;19920;-63
2023/02/01 11:25:13;;;;;;;;;;;;;;;5.56;72.87;98376.75;4916064;29;19939;-63
2023/02/01 11:27:38;;;;;;;;;;;;;;;5.41;72.87;98387.88;4931765;29;20359;-63
2023/02/01 11:30:04;;;;;;;;;;;;;;;5.32;73.35;98365.69;4934784;29;19921;-63
2023/02/01 11:32:29;;;;;;;;;;;;;;;5.26;73.93;98365.97;4934519;29;19915;-63
2023/02/01 11:34:59;;;;;;;;;;;;;;;5.24;72.65;98362.63;4934159;29;20403;-64
2023/02/01 11:37:25;;;;;;;;;;;;;;;5.26;73.75;98373.78;4936014;29;19962;-63
2023/02/01 11:39:54;;;;;;;;;;;;;;;5.28;73.75;98365.91;4932177;29;19961;-63
2023/02/01 11:42:20;;;;;;;;;;;;;;;5.21;73.69;98365.34;4932886;29;19919;-64
2023/02/01 11:44:46;;;;;;;;;;;;;;;5.22;74.02;98367.03;4934871;29;19922;-62
2023/02/01 11:47:17;;;;;;;;;;;;;;;5.19;73.84;98364.56;4935117;29;19915;-64
2023/02/01 11:49:42;;;;;;;;;;;;;;;5.19;74.09;98367.16;4935533;29;19950;-65
2023/02/01 11:52:17;;;;;;;;;;;;;;;5.24;75.17;98355.66;4933834;29;19958;-63
2023/02/01 11:54:50;;;;;;;;;;;;;;;5.28;74.45;98348.56;4935456;29;19961;-63
2023/02/01 11:57:16;;;;;;;;;;;;;;;5.31;73.41;98345.81;4934945;29;19986;-62
2023/02/01 12:00:08;;;;;;;;;;;;;;;5.36;73.69;98354.25;4934623;29;19958;-63
2023/02/01 12:02:36;;;;;;;;;;;;;;;5.53;72.38;98352.63;4933273;29;19923;-64
2023/02/01 12:05:17;;;;;;;;;;;;;;;5.59;72.57;98342.78;4935236;29;19918;-63
2023/02/01 12:08:01;;;;;;;;;;;;;;;5.62;72.82;98354.84;4935005;29;19945;-62
2023/02/01 12:10:38;;;;;;;;;;;;;;;5.57;71.71;98360.22;4933721;29;19926;-62
2023/02/01 12:13:11;;;;;;;;;;;;;;;5.45;72.83;98355.59;4933295;29;19918;-63
2023/02/01 12:15:37;;;;;;;;;;;;;;;5.42;72.64;98347.94;4933730;29;19965;-63
2023/02/01 12:18:06;;;;;;;;;;;;;;;5.39;71.87;98355.88;4934534;29;19950;-63
2023/02/01 12:20:35;;;;;;;;;;;;;;;5.41;72.75;98351.44;4933704;29;19915;-63
2023/02/01 12:23:03;;;;;;;;;;;;;;;5.35;71.95;98347.38;4933411;29;19915;-63
2023/02/01 12:25:38;;;;;;;;;;;;;;;5.34;72.29;98345.69;4934859;29;19933;-64
2023/02/01 12:28:07;;;;;;;;;;;;;;;5.40;72.10;98335.00;4933273;29;19915;-63
2023/02/01 12:30:54;;;;;;;;;;;;;;;5.48;72.33;98326.84;4934008;29;20033;-64
2023/02/01 12:33:27;;;;;;;;;;;;;;;5.58;71.21;98330.72;4933512;29;19915;-64
2023/02/01 12:35:56;;;;;;;;;;;;;;;5.58;71.13;98327.28;4930146;29;19921;-64
2023/02/01 12:38:21;;;;;;;;;;;;;;;5.54;72.01;98323.09;4914671;29;20230;-64
2023/02/01 12:40:51;;;;;;;;;;;;;;;5.55;71.97;98332.63;4915366;29;19926;-65
2023/02/01 12:43:21;;;;;;;;;;;;;;;5.57;72.02;98322.97;4914176;29;20006;-63
2023/02/01 12:45:55;;;;;;;;;;;;;;;5.58;71.58;98314.25;4914765;29;19919;-63
2023/02/01 12:48:40;;;;;;;;;;;;;;;5.63;71.07;98320.09;4914298;29;19923;-63
2023/02/01 12:51:25;;;;;;;;;;;;;;;5.71;70.75;98311.00;4919537;29;19970;-63
2023/02/01 12:53:55;;;;;;;;;;;;;;;5.73;70.49;98318.72;4933980;29;19950;-63
2023/02/01 12:56:22;;;;;;;;;;;;;;;5.70;70.64;98324.06;4933409;29;20416;-64
2023/02/01 12:58:51;;;;;;;;;;;;;;;5.58;70.82;98330.72;4933020;29;20522;-64
2023/02/01 13:01:25;;;;;;;;;;;;;;;5.50;72.81;98325.00;4932946;29;20451;-63
2023/02/01 13:04:26;;;;;;;;;;;;;;;5.42;73.76;98321.91;4932968;29;19919;-65
2023/02/01 13:06:57;;;;;;;;;;;;;;;5.33;75.07;98319.72;4894229;29;19916;-63
2023/02/01 13:09:42;;;;;;;;;;;;;;;5.22;76.03;98315.00;4878334;29;20403;-65
2023/02/01 13:12:13;;;;;;;;;;;;;;;5.17;76.73;98319.59;4878117;29;19943;-65
2023/02/01 13:14:40;;;;;;;;;;;;;;;5.12;75.89;98305.94;4878412;29;20291;-65
2023/02/01 13:17:06;;;;;;;;;;;;;;;5.05;76.31;98312.31;4878401;29;20015;-64
2023/02/01 13:19:43;;;;;;;;;;;;;;;5.05;75.71;98317.53;4878636;29;20388;-63
2023/02/01 13:22:19;;;;;;;;;;;;;;;5.06;75.57;98294.06;4893752;29;19924;-64
2023/02/01 13:24:45;;;;;;;;;;;;;;;5.23;74.74;98298.53;4877826;29;19942;-64
2023/02/01 13:27:11;;;;;;;;;;;;;;;5.39;73.36;98309.06;4893706;29;20319;-64
2023/02/01 13:29:36;;;;;;;;;;;;;;;5.44;73.62;98326.16;4893950;29;19916;-63
2023/02/01 13:32:21;;;;;;;;;;;;;;;5.46;72.91;98303.50;4893635;29;19915;-63
2023/02/01 13:35:04;;;;;;;;;;;;;;;5.33;73.38;98307.56;4894021;29;19916;-64
2023/02/01 13:37:32;;;;;;;;;;;;;;;5.20;73.83;98309.06;4893739;29;19967;-63
2023/02/01 13:39:57;;;;;;;;;;;;;;;5.11;74.77;98312.06;4896924;29;19919;-63
2023/02/01 13:42:27;;;;;;;;;;;;;;;5.14;74.81;98307.56;4925968;29;19919;-64
2023/02/01 13:44:56;;;;;;;;;;;;;;;5.19;74.67;98312.56;4936457;29;19914;-63
2023/02/01 13:47:26;;;;;;;;;;;;;;;5.16;74.57;98299.69;4936129;29;19922;-64
2023/02/01 13:49:52;;;;;;;;;;;;;;;5.26;73.94;98293.16;4920509;29;20001;-64
2023/02/01 13:52:27;;;;;;;;;;;;;;;5.43;73.69;98290.63;4937467;29;20009;-63
2023/02/01 13:55:12;;;;;;;;;;;;;;;5.54;72.75;98291.88;4936385;29;20268;-65
2023/02/01 13:57:37;;;;;;;;;;;;;;;5.53;72.15;98304.03;4937334;29;19915;-62
2023/02/01 14:00:07;;;;;;;;;;;;;;;5.48;72.59;98299.06;4935955;29;19915;-63
2023/02/01 14:02:38;;;;;;;;;;;;;;;5.51;72.55;98300.69;4937100;29;19922;-64
2023/02/01 14:05:04;;;;;;;;;;;;;;;5.49;72.64;98310.31;4937292;29;19954;-64
2023/02/01 14:07:29;;;;;;;;;;;;;;;5.42;72.91;98299.34;4936007;29;19961;-65
2023/02/01 14:09:54;;;;;;;;;;;;;;;5.48;72.57;98301.66;4936166;29;20370;-65
2023/02/01 14:12:38;;;;;;;;;;;;;;;5.46;72.51;98282.69;4936941;29;20343;-65
2023/02/01 14:15:22;;;;;;;;;;;;;;;5.46;72.55;98295.69;4937171;29;19919;-63
2023/02/01 14:17:47;;;;;;;;;;;;;;;5.43;72.18;98290.63;4934310;29;19922;-63
2023/02/01 14:20:31;;;;;;;;;;;;;;;5.40;71.94;98289.91;4936943;29;20171;-63
2023/02/01 14:23:03;;;;;;;;;;;;;;;5.35;71.78;98292.75;4935595;29;19923;-62
2023/02/01 14:25:32;;;;;;;;;;;;;;;5.31;72.07;98299.00;4935327;29;19922;-63
2023/02/01 14:27:57;;;;;;;;;;;;;;;5.29;72.60;98303.41;4935299;29;20374;-62
2023/02/01 14:30:22;;;;;;;;;;;;;;;5.27;72.38;98291.41;4935401;29;20045;-62
2023/02/01 14:32:47;;;;;;;;;;;;;;;5.23;72.17;98307.16;4935090;29;20013;-63
2023/02/01 14:35:20;;;;;;;;;;;;;;;5.18;72.37;98313.47;4935515;29;20002;-62
2023/02/01 14:37:45;;;;;;;;;;;;;;;5.19;72.27;98294.34;4935279;29;20402;-63
2023/02/01 14:40:10;;;;;;;;;;;;;;;5.14;72.77;98304.13;4935335;29;19915;-64
2023/02/01 14:42:41;;;;;;;;;;;;;;;5.11;72.38;98301.66;4936004;29;19923;-63
2023/02/01 14:45:19;;;;;;;;;;;;;;;5.08;72.85;98307.00;4936267;29;19919;-62
2023/02/01 14:47:46;;;;;;;;;;;;;;;5.00;73.31;98304.75;4936317;29;19918;-64
2023/02/01 14:50:22;;;;;;;;;;;;;;;4.88;75.29;98305.28;4936430;29;20038;-63
2023/02/01 14:53:06;;;;;;;;;;;;;;;4.83;75.52;98310.69;4935505;29;19922;-62
2023/02/01 14:55:46;;;;;;;;;;;;;;;4.84;74.92;98301.97;4936011;29;19915;-63
2023/02/01 14:58:21;;;;;;;;;;;;;;;4.84;75.08;98283.78;4936023;29;20009;-63
2023/02/01 15:00:50;;;;;;;;;;;;;;;4.82;75.83;98295.13;4934605;29;19927;-62
2023/02/01 15:03:21;;;;;;;;;;;;;;;4.81;75.14;98286.50;4935028;29;19981;-63
2023/02/01 15:05:49;;;;;;;;;;;;;;;4.79;75.40;98284.91;4934644;29;19966;-63
2023/02/01 15:08:16;;;;;;;;;;;;;;;4.80;75.33;98279.63;4934413;29;19930;-64
2023/02/01 15:10:43;;;;;;;;;;;;;;;4.81;74.91;98290.84;4934605;29;19942;-62
2023/02/01 15:13:12;;;;;;;;;;;;;;;4.79;74.76;98283.16;4934732;29;19993;-63
2023/02/01 15:15:38;;;;;;;;;;;;;;;4.80;74.54;98277.03;4934142;29;20017;-63
2023/02/01 15:18:03;;;;;;;;;;;;;;;4.79;74.93;98280.53;4918705;29;20002;-63
2023/02/01 15:20:29;;;;;;;;;;;;;;;4.82;73.96;98275.22;4934428;29;19998;-63
2023/02/01 15:22:55;;;;;;;;;;;;;;;4.78;74.11;98278.00;4918427;29;19922;-63
2023/02/01 15:25:22;;;;;;;;;;;;;;;4.74;73.89;98277.28;4914733;29;19919;-64
2023/02/01 15:27:47;;;;;;;;;;;;;;;4.71;74.24;98282.63;4931230;29;19922;-63
2023/02/01 15:30:16;;;;;;;;;;;;;;;4.74;73.80;98274.69;4934225;29;19919;-63
2023/02/01 15:32:41;;;;;;;;;;;;;;;4.76;73.91;98265.09;4935194;29;19962;-63
2023/02/01 15:35:25;;;;;;;;;;;;;;;4.75;73.63;98264.25;4934245;29;19918;-63
2023/02/01 15:37:51;;;;;;;;;;;;;;;4.78;72.99;98255.44;4935266;29;19926;-62
2023/02/01 15:40:21;;;;;;;;;;;;;;;4.74;73.00;98262.53;4935570;29;19915;-60
2023/02/01 15:42:53;;;;;;;;;;;;;;;4.69;73.71;98254.13;4933767;29;20041;-62
2023/02/01 15:45:19;;;;;;;;;;;;;;;4.69;72.93;98253.28;4935197;29;19915;-62
2023/02/01 15:47:46;;;;;;;;;;;;;;;4.69;72.74;98253.28;4933809;29;20291;-63
2023/02/01 15:50:12;;;;;;;;;;;;;;;4.72;72.70;98238.41;4934217;29;19919;-64
2023/02/01 15:52:38;;;;;;;;;;;;;;;4.70;71.89;98239.38;4933717;29;20062;-64
2023/02/01 15:55:05;;;;;;;;;;;;;;;4.72;71.71;98247.94;4934143;29;20401;-66
2023/02/01 15:57:31;;;;;;;;;;;;;;;4.62;72.20;98244.06;4933447;29;20552;-65
2023/02/01 15:59:57;;;;;;;;;;;;;;;4.60;71.35;98249.31;4934049;29;20442;-65
2023/02/01 16:02:33;;;;;;;;;;;;;;;4.55;71.31;98261.69;4917469;29;19929;-65
2023/02/01 16:04:58;;;;;;;;;;;;;;;4.48;71.09;98250.69;4933140;29;20010;-65
2023/02/01 16:07:27;;;;;;;;;;;;;;;4.45;71.57;98250.84;4933480;29;20003;-66
2023/02/01 16:09:54;;;;;;;;;;;;;;;4.46;71.28;98254.28;4917763;29;20097;-63
2023/02/01 16:12:30;;;;;;;;;;;;;;;4.42;71.55;98245.75;4933278;29;19915;-64
2023/02/01 16:14:55;;;;;;;;;;;;;;;4.49;71.08;98251.53;4933750;29;19914;-62
2023/02/01 16:17:21;;;;;;;;;;;;;;;4.51;70.65;98250.56;4933304;29;20077;-64
2023/02/01 16:19:46;;;;;;;;;;;;;;;4.52;71.17;98254.84;4930875;29;19934;-64
2023/02/01 16:22:11;;;;;;;;;;;;;;;4.49;70.97;98254.97;4932287;29;19919;-65
2023/02/01 16:24:37;;;;;;;;;;;;;;;4.49;71.29;98254.97;4932435;29;19971;-63
2023/02/01 16:27:02;;;;;;;;;;;;;;;4.43;70.83;98252.63;4933288;29;19958;-64
2023/02/01 16:29:28;;;;;;;;;;;;;;;4.46;70.55;98264.66;4934105;29;20290;-64
2023/02/01 16:31:53;;;;;;;;;;;;;;;4.44;70.86;98259.53;4933520;29;19915;-65
2023/02/01 16:34:18;;;;;;;;;;;;;;;4.43;70.34;98244.84;4933585;29;19922;-66
2023/02/01 16:36:44;;;;;;;;;;;;;;;4.43;70.98;98257.84;4935305;29;19919;-64
2023/02/01 16:39:12;;;;;;;;;;;;;;;4.47;70.71;98246.44;4933284;29;20338;-65
2023/02/01 16:41:39;;;;;;;;;;;;;;;4.48;70.56;98261.09;4933359;29;19942;-64
2023/02/01 16:44:04;;;;;;;;;;;;;;;4.50;70.38;98248.03;4932394;29;20401;-65
2023/02/01 16:46:30;;;;;;;;;;;;;;;4.50;70.53;98267.03;4934577;29;19915;-65
2023/02/01 16:48:56;;;;;;;;;;;;;;;4.50;70.47;98259.25;4933158;29;19915;-66
2023/02/01 16:51:21;;;;;;;;;;;;;;;4.43;71.21;98268.22;4933447;29;19978;-64
2023/02/01 16:53:46;;;;;;;;;;;;;;;4.50;70.78;98269.66;4932418;29;20378;-63
2023/02/01 16:56:21;;;;;;;;;;;;;;;4.52;71.04;98252.25;4933725;29;20013;-63
2023/02/01 16:58:47;;;;;;;;;;;;;;;4.49;71.30;98254.97;4934208;29;20418;-65
2023/02/01 17:01:18;;;;;;;;;;;;;;;4.56;70.71;98265.09;4933347;29;19919;-63
2023/02/01 17:03:45;;;;;;;;;;;;;;;4.59;70.41;98254.59;4933001;29;19926;-64
2023/02/01 17:06:10;;;;;;;;;;;;;;;4.56;71.25;98257.31;4933398;29;19919;-64
2023/02/01 17:08:36;;;;;;;;;;;;;;;4.59;70.13;98255.44;4933053;29;19926;-63
2023/02/01 17:11:01;;;;;;;;;;;;;;;4.63;70.23;98248.34;4933325;29;19950;-63
2023/02/01 17:13:27;;;;;;;;;;;;;;;4.59;70.95;98244.19;4934448;29;19914;-63
2023/02/01 17:15:53;;;;;;;;;;;;;;;4.55;70.79;98253.03;4936004;29;19915;-63
2023/02/01 17:18:19;;;;;;;;;;;;;;;4.53;70.79;98248.72;4937174;29;19915;-62
2023/02/01 17:20:46;;;;;;;;;;;;;;;4.60;70.50;98254.50;4936775;29;20426;-60
2023/02/01 17:23:11;;;;;;;;;;;;;;;4.60;70.81;98245.88;4935797;29;19942;-61
2023/02/01 17:25:37;;;;;;;;;;;;;;;4.56;70.80;98255.56;4937902;29;19915;-62
2023/02/01 17:28:02;;;;;;;;;;;;;;;4.70;69.83;98237.59;4938245;29;19915;-61
2023/02/01 17:30:27;;;;;;;;;;;;;;;4.59;70.52;98236.41;4938000;29;20402;-63
2023/02/01 17:32:54;;;;;;;;;;;;;;;4.58;71.39;98247.72;4936839;29;19942;-64
2023/02/01 17:35:20;;;;;;;;;;;;;;;4.57;71.64;98243.41;4938162;29;19914;-64
2023/02/01 17:37:45;;;;;;;;;;;;;;;4.60;71.65;98243.28;4936551;29;20267;-64
2023/02/01 17:40:10;;;;;;;;;;;;;;;4.62;71.06;98244.06;4937564;29;19973;-64
2023/02/01 17:42:36;;;;;;;;;;;;;;;4.63;70.85;98243.16;4937718;29;20469;-64
2023/02/01 17:45:17;;;;;;;;;;;;;;;4.62;71.78;98249.25;4937881;29;20542;-63
2023/02/01 17:47:42;;;;;;;;;;;;;;;4.62;71.34;98257.06;4936539;29;19921;-63
2023/02/01 17:50:08;;;;;;;;;;;;;;;4.66;70.42;98253.41;4937620;29;19914;-63
2023/02/01 17:52:35;;;;;;;;;;;;;;;4.64;70.60;98250.88;4937827;29;20001;-64
2023/02/01 17:55:00;;;;;;;;;;;;;;;4.64;70.87;98255.22;4938146;29;20001;-63
2023/02/01 17:57:26;;;;;;;;;;;;;;;4.61;70.99;98230.25;4936412;29;20391;-64
2023/02/01 17:59:51;;;;;;;;;;;;;;;4.63;71.08;98243.16;4938096;29;20311;-64
2023/02/01 18:02:20;;;;;;;;;;;;;;;4.63;70.67;98237.94;4936324;29;20280;-63
2023/02/01 18:04:46;;;;;;;;;;;;;;;4.59;70.66;98237.25;4937997;29;20105;-64
2023/02/01 18:07:11;;;;;;;;;;;;;;;4.58;70.42;98232.97;4936271;29;20496;-64
2023/02/01 18:09:36;;;;;;;;;;;;;;;4.57;70.69;98222.63;4933388;29;19923;-64
2023/02/01 18:12:02;;;;;;;;;;;;;;;5.80;73.83;98249.00;4936316;29;19926;-64
2023/02/01 18:14:27;;;;;;;;;;;;;;;5.56;68.16;98231.06;4936190;29;19915;-63
2023/02/01 18:16:53;;;;;;;;;;;;;;;5.20;68.51;98233.66;4953540;29;19915;-64
2023/02/01 18:19:18;;;;;;;;;;;;;;;5.11;69.82;98229.69;4942553;29;19995;-63
2023/02/01 18:21:43;;;;;;;;;;;;;;;4.88;70.98;98238.53;4927347;29;19969;-64
2023/02/01 18:24:11;;;;;;;;;;;;;;;4.85;70.85;98217.03;4935873;29;19954;-63
2023/02/01 18:26:37;;;;;;;;;;;;;;;4.80;71.51;98229.41;4923620;29;19930;-63
2023/02/01 18:29:02;;;;;;;;;;;;;;;4.68;72.04;98228.19;4934808;29;19919;-61
2023/02/01 18:31:28;;;;;;;;;;;;;;;4.64;72.05;98224.03;4936520;29;19923;-63
2023/02/01 18:33:54;;;;;;;;;;;;;;;4.64;72.62;98244.81;4936036;29;19914;-64
2023/02/01 18:36:19;;;;;;;;;;;;;;;4.60;72.48;98231.13;4936128;29;19930;-65
2023/02/01 18:38:44;;;;;;;;;;;;;;;4.63;72.14;98214.56;4937016;29;19915;-65
2023/02/01 18:41:14;;;;;;;;;;;;;;;4.68;71.97;98230.78;4931629;29;19985;-65
2023/02/01 18:43:40;;;;;;;;;;;;;;;4.62;72.54;98220.69;4922383;29;19918;-65
2023/02/01 18:46:06;;;;;;;;;;;;;;;4.67;71.91;98218.72;4934825;29;20181;-65
2023/02/01 18:48:31;;;;;;;;;;;;;;;4.58;72.58;98224.34;4934223;29;20343;-65
2023/02/01 18:50:56;;;;;;;;;;;;;;;4.61;72.35;98234.56;4935700;29;20005;-65
2023/02/01 18:53:25;;;;;;;;;;;;;;;4.65;72.11;98230.94;4935131;29;20003;-64
2023/02/01 18:55:51;;;;;;;;;;;;;;;4.60;72.58;98235.47;4932288;29;19927;-65
2023/02/01 18:58:16;;;;;;;;;;;;;;;4.60;71.93;98251.06;4933863;29;20086;-65
2023/02/01 19:00:42;;;;;;;;;;;;;;;4.56;72.43;98242.56;4935626;29;20244;-63
2023/02/01 19:03:08;;;;;;;;;;;;;;;4.62;72.08;98238.88;4935061;29;20056;-64
2023/02/01 19:05:33;;;;;;;;;;;;;;;4.65;71.97;98230.94;4933772;29;19930;-63
2023/02/01 19:07:59;;;;;;;;;;;;;;;4.60;72.74;98235.47;4932450;29;19927;-64
2023/02/01 19:10:24;;;;;;;;;;;;;;;4.62;72.73;98231.91;4934731;29;19926;-64
2023/02/01 19:12:49;;;;;;;;;;;;;;;4.63;73.66;98224.97;4930105;29;19915;-65
2023/02/01 19:15:15;;;;;;;;;;;;;;;4.56;74.14;98224.38;4935888;29;19972;-62
2023/02/01 19:17:41;;;;;;;;;;;;;;;4.47;74.91;98224.78;4942305;28;19919;-65
2023/02/01 19:20:07;;;;;;;;;;;;;;;4.46;75.78;98223.94;4933661;29;19930;-64
2023/02/01 19:22:32;;;;;;;;;;;;;;;4.46;75.43;98216.16;4932696;29;20014;-64
2023/02/01 19:24:57;;;;;;;;;;;;;;;4.46;74.78;98230.91;4941863;29;19946;-63
2023/02/01 19:27:23;;;;;;;;;;;;;;;4.41;75.00;98231.09;4931276;29;19919;-64
2023/02/01 19:29:48;;;;;;;;;;;;;;;4.44;74.93;98224.91;4934809;29;19919;-66
2023/02/01 19:32:14;;;;;;;;;;;;;;;4.43;74.79;98224.06;4935033;29;19997;-63
2023/02/01 19:34:39;;;;;;;;;;;;;;;4.42;74.59;98240.56;4917240;29;19946;-63
2023/02/01 19:37:04;;;;;;;;;;;;;;;4.46;74.44;98249.06;4933217;29;19961;-62
2023/02/01 19:39:30;;;;;;;;;;;;;;;4.48;74.17;98245.50;4933140;29;19970;-63
2023/02/01 19:41:56;;;;;;;;;;;;;;;4.48;74.04;98234.28;4934707;29;20019;-63
2023/02/01 19:44:24;;;;;;;;;;;;;;;4.51;74.14;98241.94;4916359;29;21598;-63
2023/02/01 19:46:49;;;;;;;;;;;;;;;4.45;74.43;98230.06;4916964;29;19950;-63
2023/02/01 19:49:15;;;;;;;;;;;;;;;4.47;73.65;98232.56;4916575;29;20368;-63
2023/02/01 19:51:40;;;;;;;;;;;;;;;4.50;74.00;98250.63;4932730;29;20446;-62
2023/02/01 19:54:08;;;;;;;;;;;;;;;4.55;73.29;98253.03;4933815;29;19919;-63
2023/02/01 19:56:34;;;;;;;;;;;;;;;4.53;73.71;98247.91;4934565;29;19915;-64
2023/02/01 19:58:59;;;;;;;;;;;;;;;4.55;73.16;98247.84;4934360;29;19921;-63
2023/02/01 20:01:25;;;;;;;;;;;;;;;4.50;73.41;98248.88;4934483;29;19923;-63
2023/02/01 20:03:50;;;;;;;;;;;;;;;4.53;73.37;98246.13;4926310;29;19930;-64
2023/02/01 20:06:15;;;;;;;;;;;;;;;4.46;73.94;98244.72;4935557;29;19921;-63
2023/02/01 20:08:40;;;;;;;;;;;;;;;4.44;73.87;98238.75;4935390;29;20379;-63
2023/02/01 20:11:06;;;;;;;;;;;;;;;4.39;74.45;98247.66;4934440;29;20438;-63
2023/02/01 20:13:33;;;;;;;;;;;;;;;4.41;73.98;98249.28;4933765;29;20376;-63
2023/02/01 20:15:59;;;;;;;;;;;;;;;4.40;74.65;98255.38;4934184;29;19915;-63
2023/02/01 20:18:24;;;;;;;;;;;;;;;4.40;74.96;98257.97;4932308;29;19915;-64
2023/02/01 20:20:49;;;;;;;;;;;;;;;4.40;75.96;98252.75;4933945;29;19926;-64
2023/02/01 20:23:14;;;;;;;;;;;;;;;4.44;75.53;98246.56;4931171;29;20429;-64
2023/02/01 20:25:40;;;;;;;;;;;;;;;4.41;75.71;98249.28;4933317;29;20363;-63
2023/02/01 20:28:05;;;;;;;;;;;;;;;4.39;75.49;98240.69;4929846;29;20299;-63
2023/02/01 20:30:31;;;;;;;;;;;;;;;4.42;75.48;98250.13;4931835;29;19967;-64
2023/02/01 20:32:56;;;;;;;;;;;;;;;4.33;76.08;98235.75;4935110;29;20005;-64
2023/02/01 20:35:21;;;;;;;;;;;;;;;4.31;76.02;98237.59;4935359;29;20292;-64
2023/02/01 20:37:47;;;;;;;;;;;;;;;4.33;76.16;98238.34;4934960;29;20315;-64
2023/02/01 20:40:12;;;;;;;;;;;;;;;4.28;76.30;98232.53;4929100;29;20394;-62
2023/02/01 20:42:39;;;;;;;;;;;;;;;4.33;76.12;98225.38;4931408;29;19919;-63
2023/02/01 20:45:04;;;;;;;;;;;;;;;4.29;76.17;98231.63;4933847;29;19990;-64
2023/02/01 20:47:30;;;;;;;;;;;;;;;4.30;76.09;98235.88;4932569;29;20006;-64
2023/02/01 20:49:55;;;;;;;;;;;;;;;4.29;76.76;98234.22;4934553;29;20378;-64
2023/02/01 20:52:20;;;;;;;;;;;;;;;4.32;75.89;98228.88;4932214;29;20014;-64
2023/02/01 20:54:45;;;;;;;;;;;;;;;4.36;75.92;98232.19;4932118;29;20038;-65
2023/02/01 20:57:10;;;;;;;;;;;;;;;4.41;75.57;98222.47;4916091;29;19965;-63
2023/02/01 20:59:36;;;;;;;;;;;;;;;4.44;75.44;98243.97;4926707;29;19950;-64
2023/02/01 21:02:01;;;;;;;;;;;;;;;4.42;75.45;98234.53;4924841;29;19958;-65
2023/02/01 21:04:26;;;;;;;;;;;;;;;4.40;75.90;98220.75;4934145;29;19962;-64